Time;durP1;ratioP1;P1;durP2;ratioP2;P2;SDS_P1;SDS_P2;PMS_P1;PMS_P2;Temp;Humidity;BMP_temperature;BMP_pressure;BME280_temperature;BME280_humidity;BME280_pressure;Samples;Min_cycle;Max_cycle;Signal;HPM_P1;HPM_P2
2023/01/12 00:03:14;;;;;;;27.90;15.10;;;;;;;-7.98;91.79;100827.81;102127;1299;600305;-67
2023/01/12 00:05:41;;;;;;;30.00;16.20;;;;;;;-8.00;92.10;100828.80;104335;1269;59825;-67
2023/01/12 00:08:08;;;;;;;22.20;14.80;;;;;;;-7.97;92.11;100828.30;104457;1274;59467;-69
2023/01/12 00:10:34;;;;;;;46.00;18.30;;;;;;;-7.92;92.19;100823.96;104324;1275;73251;-68
2023/01/12 00:13:01;;;;;;;27.80;12.30;;;;;;;-7.85;92.19;100828.30;104510;1274;70199;-69
2023/01/12 00:18:14;;;;;;;13.30;9.40;;;;;;;-7.67;92.20;100830.90;104540;1269;61216;-68
2023/01/12 00:20:47;;;;;;;17.90;13.00;;;;;;;-7.66;91.97;100829.63;104998;1268;59389;-68
2023/01/12 00:23:14;;;;;;;17.30;11.00;;;;;;;-7.64;91.75;100839.95;104601;1268;73276;-69
2023/01/12 00:25:40;;;;;;;22.90;13.20;;;;;;;-7.60;91.74;100842.45;104576;1272;70280;-68
2023/01/12 00:28:07;;;;;;;27.20;11.50;;;;;;;-7.58;91.68;100841.10;104604;1266;72885;-69
2023/01/12 00:30:34;;;;;;;13.20;10.70;;;;;;;-7.59;91.72;100840.25;103763;1273;1003506;-68
2023/01/12 00:33:01;;;;;;;15.10;8.10;;;;;;;-7.59;91.75;100842.20;104558;1266;59781;-67
2023/01/12 00:35:27;;;;;;;22.00;9.00;;;;;;;-7.58;91.60;100841.39;104752;1268;75445;-68
2023/01/12 00:37:54;;;;;;;18.70;9.70;;;;;;;-7.54;91.70;100844.84;105175;1268;68892;-70
2023/01/12 00:40:21;;;;;;;14.30;10.60;;;;;;;-7.55;91.65;100843.46;104604;1265;72385;-68
2023/01/12 00:45:34;;;;;;;16.20;11.10;;;;;;;-7.51;91.57;100858.02;105239;1262;60263;-71
2023/01/12 00:48:00;;;;;;;14.90;9.80;;;;;;;-7.40;91.68;100856.04;105309;1265;73849;-68
2023/01/12 00:50:28;;;;;;;13.00;8.20;;;;;;;-7.30;91.68;100861.20;104961;1266;66954;-69
2023/01/12 00:52:55;;;;;;;20.10;10.60;;;;;;;-7.23;91.26;100860.03;104773;1268;72333;-71
2023/01/12 00:55:22;;;;;;;21.00;13.50;;;;;;;-7.26;90.83;100855.92;105203;1264;59667;-69
2023/01/12 00:57:49;;;;;;;21.70;13.00;;;;;;;-7.27;90.94;100856.66;105377;1256;61290;-70
2023/01/12 01:00:16;;;;;;;18.60;12.00;;;;;;;-7.22;91.06;100861.50;105214;1259;73505;-70
2023/01/12 01:02:43;;;;;;;21.70;14.60;;;;;;;-7.20;90.96;100865.77;105356;1261;68064;-66
2023/01/12 01:05:10;;;;;;;30.50;18.50;;;;;;;-7.17;90.56;100866.23;105226;1256;71838;-66
2023/01/12 01:07:37;;;;;;;28.70;18.50;;;;;;;-7.18;90.48;100867.02;105128;1256;64129;-68
2023/01/12 01:10:05;;;;;;;25.70;18.80;;;;;;;-7.18;90.48;100858.84;105157;1256;60025;-67
2023/01/12 01:12:32;;;;;;;28.90;19.00;;;;;;;-7.22;90.46;100855.77;105251;1256;74068;-67
2023/01/12 01:14:58;;;;;;;22.50;17.40;;;;;;;-7.23;90.51;100855.30;105229;1261;68485;-68
2023/01/12 01:17:27;;;;;;;21.70;16.70;;;;;;;-7.21;90.76;100856.42;105260;1261;72909;-68
2023/01/12 01:19:54;;;;;;;29.00;18.20;;;;;;;-7.16;90.73;100854.15;105313;1257;59680;-68
2023/01/12 01:22:21;;;;;;;28.00;18.00;;;;;;;-7.08;90.93;100857.59;105303;1256;62089;-67
2023/01/12 01:24:47;;;;;;;25.10;15.40;;;;;;;-7.06;90.49;100856.94;105255;1256;72555;-68
2023/01/12 01:27:14;;;;;;;19.90;17.00;;;;;;;-7.03;90.39;100859.48;105251;1261;68375;-67
2023/01/12 01:29:41;;;;;;;22.50;14.60;;;;;;;-7.02;90.23;100863.80;105350;1257;73056;-67
2023/01/12 01:32:08;;;;;;;17.80;12.50;;;;;;;-6.98;90.15;100864.06;104630;1258;1003677;-67
2023/01/12 01:34:35;;;;;;;16.80;13.20;;;;;;;-6.94;90.19;100863.21;105194;1259;60062;-67
2023/01/12 01:37:03;;;;;;;18.90;13.80;;;;;;;-6.92;89.75;100862.38;105311;1260;75299;-68
2023/01/12 01:39:29;;;;;;;16.30;12.30;;;;;;;-6.93;89.87;100871.15;105379;1262;68475;-70
2023/01/12 01:41:56;;;;;;;22.90;14.20;;;;;;;-6.99;89.69;100870.73;105321;1256;72972;-68
2023/01/12 01:44:29;;;;;;;19.40;13.70;;;;;;;-6.97;89.90;100875.84;104620;1256;1003860;-66
2023/01/12 01:47:01;;;;;;;22.90;11.50;;;;;;;-6.90;90.08;100874.80;105093;1256;63452;-69
2023/01/12 01:49:35;;;;;;;21.70;14.10;;;;;;;-6.81;90.22;100876.91;105114;1260;75671;-69
2023/01/12 01:52:05;;;;;;;32.60;16.60;;;;;;;-6.79;89.96;100876.09;105273;1261;68822;-67
2023/01/12 01:54:35;;;;;;;28.10;17.70;;;;;;;-6.83;89.95;100872.31;105246;1258;71987;-67
2023/01/12 01:57:02;;;;;;;40.60;21.90;;;;;;;-6.85;90.05;100870.21;105062;1264;62855;-69
2023/01/12 01:59:31;;;;;;;36.40;22.40;;;;;;;-6.90;90.11;100871.98;105098;1259;62667;-72
2023/01/12 02:01:58;;;;;;;34.40;20.60;;;;;;;-6.91;90.21;100870.85;105124;1259;71903;-68
2023/01/12 02:04:25;;;;;;;41.00;22.40;;;;;;;-6.91;90.62;100871.01;104976;1259;70699;-68
2023/01/12 02:06:52;;;;;;;31.10;18.70;;;;;;;-6.88;90.54;100871.50;105292;1259;72081;-68
2023/01/12 02:09:21;;;;;;;31.10;21.20;;;;;;;-6.88;90.71;100877.27;105397;1261;62014;-68
2023/01/12 02:17:34;;;;;;;45.90;26.20;;;;;;;-6.79;91.10;100885.30;105285;1261;66923;-69
2023/01/12 02:20:20;;;;;;;22.10;15.80;;;;;;;-6.73;90.98;100876.50;105175;1262;72630;-66
2023/01/12 02:23:05;;;;;;;30.50;18.30;;;;;;;-6.68;91.12;100871.45;105232;1262;61379;-68
2023/01/12 02:25:32;;;;;;;28.40;16.30;;;;;;;-6.62;91.08;100862.92;105369;1256;59852;-69
2023/01/12 02:28:18;;;;;;;23.70;15.20;;;;;;;-6.54;90.81;100861.39;105291;1258;71310;-67
2023/01/12 02:31:39;;;;;;;32.10;15.00;;;;;;;-6.49;91.18;100865.52;105268;1256;68310;-68
2023/01/12 02:34:17;;;;;;;23.60;11.70;;;;;;;-6.56;90.26;100870.61;104864;1261;74545;-68
2023/01/12 02:36:51;;;;;;;13.20;8.30;;;;;;;-6.55;90.89;100866.85;104802;1267;60333;-68
2023/01/12 02:39:24;;;;;;;17.70;11.60;;;;;;;-6.51;90.70;100868.93;105380;1261;59749;-68
2023/01/12 02:45:03;;;;;;;10.90;7.70;;;;;;;-6.45;90.83;100859.93;105367;1259;67954;-67
2023/01/12 02:47:54;;;;;;;15.60;11.30;;;;;;;-6.44;90.80;100854.66;105373;1256;73981;-68
2023/01/12 02:50:45;;;;;;;18.80;10.40;;;;;;;-6.45;90.66;100852.14;105262;1261;61130;-67
2023/01/12 02:53:23;;;;;;;17.60;10.50;;;;;;;-6.44;90.59;100850.80;105257;1256;62405;-68
2023/01/12 02:55:50;;;;;;;16.40;10.10;;;;;;;-6.45;90.72;100850.19;105391;1261;76146;-68
2023/01/12 02:58:17;;;;;;;14.20;8.20;;;;;;;-6.44;90.94;100848.36;105054;1264;67572;-67
2023/01/12 03:00:44;;;;;;;12.50;7.00;;;;;;;-6.50;90.69;100843.77;105373;1256;71318;-66
2023/01/12 03:03:11;;;;;;;10.40;7.50;;;;;;;-6.60;90.63;100846.98;105112;1265;59807;-67
2023/01/12 03:05:40;;;;;;;10.10;7.10;;;;;;;-6.69;90.55;100851.76;105151;1263;59850;-67
2023/01/12 03:08:08;;;;;;;13.50;9.00;;;;;;;-6.76;90.75;100856.16;105248;1262;73208;-67
2023/01/12 03:10:41;;;;;;;13.10;9.70;;;;;;;-6.84;91.31;100853.40;105226;1256;69043;-68
2023/01/12 03:13:11;;;;;;;9.70;6.40;;;;;;;-6.83;91.52;100847.59;105333;1261;74652;-70
2023/01/12 03:15:40;;;;;;;13.40;8.40;;;;;;;-6.85;91.74;100843.37;105744;1260;61652;-70
2023/01/12 03:18:11;;;;;;;10.50;8.10;;;;;;;-6.84;92.11;100843.30;105846;1262;59736;-70
2023/01/12 03:20:42;;;;;;;11.10;6.80;;;;;;;-6.86;92.27;100843.94;104952;1259;1002956;-69
2023/01/12 03:23:16;;;;;;;12.80;9.00;;;;;;;-6.86;92.38;100840.69;105815;1256;68940;-70
2023/01/12 03:25:43;;;;;;;10.50;8.40;;;;;;;-6.82;92.62;100837.02;105523;1264;72396;-70
2023/01/12 03:28:11;;;;;;;19.50;8.50;;;;;;;-6.79;92.58;100831.76;105527;1256;61381;-69
2023/01/12 03:31:07;;;;;;;12.70;7.60;;;;;;;-6.76;92.75;100833.27;105822;1259;59787;-70
2023/01/12 03:33:34;;;;;;;16.90;8.20;;;;;;;-6.71;92.70;100828.89;105650;1261;73435;-70
2023/01/12 03:36:15;;;;;;;13.10;7.90;;;;;;;-6.66;92.51;100833.21;105513;1258;68570;-68
2023/01/12 03:38:45;;;;;;;12.50;8.80;;;;;;;-6.62;92.60;100828.09;105551;1264;73590;-71
2023/01/12 03:41:19;;;;;;;13.40;8.20;;;;;;;-6.58;92.44;100816.13;105690;1259;60756;-71
2023/01/12 03:43:49;;;;;;;11.40;7.50;;;;;;;-6.49;92.71;100812.98;105631;1256;60702;-70
2023/01/12 03:46:32;;;;;;;11.80;7.70;;;;;;;-6.43;92.53;100814.09;105520;1260;72360;-70
2023/01/12 03:49:02;;;;;;;14.10;10.20;;;;;;;-6.38;92.58;100813.39;105520;1259;67807;-69
2023/01/12 03:51:31;;;;;;;15.60;10.20;;;;;;;-6.34;92.59;100814.80;105156;1259;72863;-69
2023/01/12 03:53:58;;;;;;;16.40;10.60;;;;;;;-6.23;92.43;100806.16;105356;1262;61497;-67
2023/01/12 03:56:27;;;;;;;19.30;11.20;;;;;;;-6.09;92.61;100807.69;105559;1263;60732;-67
2023/01/12 03:58:54;;;;;;;18.50;10.00;;;;;;;-6.03;92.05;100813.34;105174;1263;73654;-68
2023/01/12 04:01:21;;;;;;;15.00;8.80;;;;;;;-5.98;91.58;100813.70;105320;1258;68788;-69
2023/01/12 04:03:48;;;;;;;12.80;8.60;;;;;;;-5.99;91.67;100809.06;105327;1263;75333;-69
2023/01/12 04:06:15;;;;;;;12.40;8.10;;;;;;;-6.03;91.53;100798.89;104944;1259;1003371;-69
2023/01/12 04:08:42;;;;;;;16.60;7.70;;;;;;;-6.06;91.89;100798.90;105441;1259;61378;-69
2023/01/12 08:19:01;;;;;;;28.40;12.70;;;;;;;-5.19;100.00;100752.36;102280;1296;601001;-70
2023/01/12 08:21:38;;;;;;;30.30;18.00;;;;;;;-5.17;100.00;100756.08;105005;1276;64645;-69
2023/01/12 08:24:05;;;;;;;28.60;17.00;;;;;;;-5.12;100.00;100756.02;104937;1270;60632;-69
2023/01/12 08:26:35;;;;;;;24.10;15.40;;;;;;;-5.06;100.00;100755.34;105465;1260;73471;-69
2023/01/12 08:29:09;;;;;;;22.90;11.10;;;;;;;-4.97;100.00;100749.88;105325;1265;70223;-69
2023/01/12 08:31:38;;;;;;;18.30;9.70;;;;;;;-4.85;100.00;100754.13;105177;1263;578270;-69
2023/01/12 08:34:05;;;;;;;14.70;9.60;;;;;;;-4.77;100.00;100758.03;105760;1257;63045;-69
2023/01/12 08:36:32;;;;;;;12.30;8.00;;;;;;;-4.74;100.00;100751.98;105547;1258;60710;-70
2023/01/12 08:39:00;;;;;;;14.20;8.50;;;;;;;-4.67;100.00;100750.89;105566;1257;74821;-67
2023/01/12 08:41:33;;;;;;;29.20;12.30;;;;;;;-4.62;100.00;100743.10;105168;1262;70297;-69
2023/01/12 08:44:01;;;;;;;21.00;9.90;;;;;;;-4.56;100.00;100740.14;105373;1263;73465;-69
2023/01/12 08:46:36;;;;;;;16.40;9.10;;;;;;;-4.47;100.00;100735.20;105380;1260;62885;-67
2023/01/12 08:49:06;;;;;;;15.90;10.00;;;;;;;-4.42;100.00;100733.75;105374;1262;60507;-67
2023/01/12 08:51:34;;;;;;;16.20;9.60;;;;;;;-4.41;100.00;100731.52;105355;1259;75464;-67
2023/01/12 08:54:01;;;;;;;20.80;9.80;;;;;;;-4.43;100.00;100728.89;105130;1264;67385;-69
2023/01/12 08:56:28;;;;;;;15.90;11.10;;;;;;;-4.45;100.00;100728.73;105208;1260;75612;-69
2023/01/12 08:58:55;;;;;;;12.10;9.00;;;;;;;-4.45;100.00;100727.66;105228;1260;60978;-68
2023/01/12 09:01:22;;;;;;;18.00;10.50;;;;;;;-4.43;100.00;100727.30;105414;1257;61714;-70
2023/01/12 09:03:49;;;;;;;16.70;9.90;;;;;;;-4.40;100.00;100718.84;105582;1262;74192;-68
2023/01/12 09:06:18;;;;;;;16.20;10.50;;;;;;;-4.32;100.00;100715.25;105379;1259;68799;-71
2023/01/12 09:08:45;;;;;;;22.30;11.10;;;;;;;-4.36;100.00;100715.43;105885;1261;74411;-68
2023/01/12 09:11:14;;;;;;;10.50;9.00;;;;;;;-4.40;100.00;100718.52;105543;1260;61470;-69
2023/01/12 09:13:41;;;;;;;15.80;11.70;;;;;;;-4.42;100.00;100715.14;105782;1259;62863;-68
2023/01/12 09:16:13;;;;;;;17.20;10.70;;;;;;;-4.37;100.00;100717.27;105366;1261;74373;-69
2023/01/12 09:18:40;;;;;;;16.10;9.50;;;;;;;-4.36;100.00;100715.02;105288;1262;69475;-68
2023/01/12 09:21:09;;;;;;;19.90;11.40;;;;;;;-4.27;100.00;100710.27;105201;1257;75545;-69
2023/01/12 09:23:37;;;;;;;12.60;9.70;;;;;;;-4.21;100.00;100700.61;105120;1260;61302;-68
2023/01/12 09:26:05;;;;;;;16.10;10.70;;;;;;;-4.12;100.00;100701.62;105004;1264;59550;-68
2023/01/12 09:28:32;;;;;;;15.80;10.40;;;;;;;-4.08;100.00;100700.34;105075;1263;76123;-70
2023/01/12 09:31:04;;;;;;;19.10;9.70;;;;;;;-4.07;100.00;100699.92;105224;1262;69107;-69
2023/01/12 09:33:31;;;;;;;20.80;10.70;;;;;;;-4.04;100.00;100702.65;105379;1260;74942;-69
2023/01/12 09:36:02;;;;;;;16.70;10.50;;;;;;;-3.92;100.00;100704.61;105150;1257;61719;-69
2023/01/12 09:38:29;;;;;;;24.30;12.40;;;;;;;-3.90;100.00;100708.83;105055;1263;61099;-69
2023/01/12 09:41:00;;;;;;;14.40;9.60;;;;;;;-3.83;100.00;100705.04;105133;1262;72953;-68
2023/01/12 09:49:02;;;;;;;17.70;10.10;;;;;;;-3.78;100.00;100706.31;105076;1262;60355;-69
2023/01/12 09:51:35;;;;;;;18.90;10.70;;;;;;;-3.81;100.00;100703.83;104920;1258;61611;-69
2023/01/12 09:54:03;;;;;;;17.50;10.10;;;;;;;-3.82;100.00;100704.80;104986;1260;72263;-67
2023/01/12 09:56:39;;;;;;;15.30;10.00;;;;;;;-3.84;100.00;100704.40;104378;1260;1003431;-68
2023/01/12 09:59:10;;;;;;;20.20;11.70;;;;;;;-3.83;100.00;100708.69;105121;1260;75395;-69
2023/01/12 10:01:37;;;;;;;16.30;9.10;;;;;;;-3.78;100.00;100697.57;105083;1257;63503;-67
2023/01/12 10:04:04;;;;;;;8.00;6.60;;;;;;;-3.75;100.00;100699.25;108941;1257;62656;-69
2023/01/12 10:06:31;;;;;;;12.50;9.80;;;;;;;-3.74;99.97;100705.28;108900;1258;74058;-69
2023/01/12 10:08:59;;;;;;;15.20;9.90;;;;;;;-3.73;99.85;100707.66;109061;1257;69771;-69
2023/01/12 10:11:55;;;;;;;18.20;10.30;;;;;;;-3.73;99.59;100701.70;108968;1259;73018;-69
2023/01/12 10:14:32;;;;;;;17.40;11.70;;;;;;;-3.62;99.82;100707.94;108920;1259;61509;-66
2023/01/12 10:17:08;;;;;;;16.20;11.90;;;;;;;-3.61;99.34;100706.45;109054;1259;61348;-69
2023/01/12 10:20:01;;;;;;;10.40;8.00;;;;;;;-3.59;98.93;100709.95;109011;1258;74276;-68
2023/01/12 10:22:37;;;;;;;11.20;9.00;;;;;;;-3.66;98.41;100709.65;108998;1259;66355;-68
2023/01/12 10:25:12;;;;;;;14.70;8.90;;;;;;;-3.69;98.35;100708.20;108983;1258;71507;-67
2023/01/12 10:27:41;;;;;;;15.40;9.00;;;;;;;-3.71;98.28;100701.53;108855;1260;62335;-67
2023/01/12 10:30:16;;;;;;;11.00;8.90;;;;;;;-3.71;98.16;100697.31;109037;1259;59811;-66
2023/01/12 10:32:43;;;;;;;14.50;10.40;;;;;;;-3.72;97.93;100696.91;109022;1259;75043;-67
2023/01/12 10:35:16;;;;;;;15.80;9.60;;;;;;;-3.75;97.84;100692.23;108936;1260;70099;-68
2023/01/12 10:37:53;;;;;;;16.10;10.50;;;;;;;-3.68;98.09;100690.39;108977;1260;73517;-66
2023/01/12 10:40:28;;;;;;;14.80;10.20;;;;;;;-3.64;97.96;100685.29;108967;1259;61185;-67
2023/01/12 10:43:20;;;;;;;14.60;10.60;;;;;;;-3.60;97.57;100676.56;108984;1258;58916;-67
2023/01/12 10:45:53;;;;;;;19.40;11.50;;;;;;;-3.61;97.35;100678.74;109013;1259;73641;-68
2023/01/12 10:48:25;;;;;;;;;;;;;;;-3.64;97.11;100675.36;109020;1259;68850;-68
2023/01/12 10:51:18;;;;;;;36.50;11.30;;;;;;;-3.67;97.12;100671.58;108976;1263;72047;-68
2023/01/12 10:53:56;;;;;;;21.50;10.60;;;;;;;-3.61;97.42;100667.56;108966;1262;63064;-68
2023/01/12 10:56:28;;;;;;;22.40;12.30;;;;;;;-3.57;97.37;100662.97;108941;1262;59013;-77
2023/01/12 10:59:04;;;;;;;23.00;12.50;;;;;;;-3.56;97.00;100660.19;109037;1262;74574;-73
2023/01/12 11:01:52;;;;;;;22.40;12.90;;;;;;;-3.53;96.91;100655.06;109020;1260;66642;-76
2023/01/12 11:04:24;;;;;;;27.40;15.20;;;;;;;-3.50;97.05;100657.45;108938;1260;73830;-73
2023/01/12 11:07:07;;;;;;;21.60;12.50;;;;;;;-3.45;96.85;100660.17;108877;1264;63467;-73
2023/01/12 11:09:34;;;;;;;21.50;12.10;;;;;;;-3.40;96.53;100669.69;108853;1259;59974;-76
2023/01/12 11:12:02;;;;;;;15.30;12.10;;;;;;;-3.42;96.13;100665.97;108960;1259;75229;-74
2023/01/12 11:14:36;;;;;;;25.00;12.80;;;;;;;-3.36;96.23;100669.31;108925;1260;67855;-72
2023/01/12 11:17:29;;;;;;;18.50;11.60;;;;;;;-3.35;95.90;100658.72;108897;1259;74930;-69
2023/01/12 11:19:56;;;;;;;26.50;14.00;;;;;;;-3.34;95.92;100657.41;108949;1259;59486;-72
2023/01/12 11:22:26;;;;;;;24.00;12.80;;;;;;;-3.30;95.64;100661.59;108871;1259;60732;-72
2023/01/12 11:25:02;;;;;;;19.90;14.40;;;;;;;-3.32;95.50;100667.25;108918;1264;75120;-67
2023/01/12 11:27:34;;;;;;;25.20;14.50;;;;;;;-3.33;95.59;100665.58;109028;1263;66547;-69
2023/01/12 11:30:14;;;;;;;21.30;12.30;;;;;;;-3.30;95.68;100666.14;108784;1260;72391;-72
2023/01/12 11:33:11;;;;;;;20.80;13.80;;;;;;;-3.24;95.96;100670.88;108868;1260;61795;-73
2023/01/12 11:35:40;;;;;;;16.00;11.40;;;;;;;-3.16;95.60;100669.55;108981;1260;60963;-74
2023/01/12 11:38:17;;;;;;;23.40;14.70;;;;;;;-3.15;95.16;100670.24;108830;1260;74362;-73
2023/01/12 11:40:45;;;;;;;27.60;13.70;;;;;;;-3.15;94.93;100662.87;108929;1260;66833;-73
2023/01/12 11:46:13;;;;;;;20.40;14.20;;;;;;;-3.23;94.86;100655.88;108930;1261;59475;-71
2023/01/12 11:49:09;;;;;;;21.00;14.40;;;;;;;-3.27;95.04;100654.49;108877;1259;62290;-73
2023/01/12 11:51:36;;;;;;;30.20;14.50;;;;;;;-3.22;95.46;100652.48;108866;1259;73248;-74
2023/01/12 11:54:04;;;;;;;14.00;10.90;;;;;;;-3.19;95.50;100654.30;108872;1259;68982;-71
2023/01/12 11:56:49;;;;;;;20.50;14.70;;;;;;;-3.15;95.20;100652.68;108926;1261;73057;-72
2023/01/12 16:18:58;;;;;;;44.40;27.90;;;;;;;-4.53;100.00;100631.79;102187;1301;601434;-68
2023/01/12 16:21:26;;;;;;;61.90;33.40;;;;;;;-4.54;100.00;100630.61;103868;1273;1003499;-70
2023/01/12 16:23:56;;;;;;;52.50;26.80;;;;;;;-4.51;100.00;100630.86;104516;1273;59560;-68
2023/01/12 16:26:24;;;;;;;48.10;29.80;;;;;;;-4.46;100.00;100629.77;104462;1270;73552;-68
2023/01/12 16:28:51;;;;;;;42.50;26.80;;;;;;;-4.41;100.00;100633.39;104365;1276;66968;-67
2023/01/12 16:31:18;;;;;;;40.50;19.00;;;;;;;-4.34;100.00;100635.44;104225;1273;555890;-69
2023/01/12 16:33:45;;;;;;;51.80;23.10;;;;;;;-4.33;100.00;100624.80;108445;1268;62234;-67
2023/01/12 16:36:13;;;;;;;42.30;23.20;;;;;;;-4.27;100.00;100620.46;108435;1267;58922;-66
2023/01/12 16:38:39;;;;;;;36.60;24.40;;;;;;;-4.23;100.00;100622.70;108479;1266;72170;-68
2023/01/12 16:41:11;;;;;;;45.50;25.00;;;;;;;-4.24;100.00;100619.80;108582;1266;69644;-66
2023/01/12 16:43:38;;;;;;;36.70;21.20;;;;;;;-4.24;100.00;100625.82;108526;1265;72576;-66
2023/01/12 16:46:05;;;;;;;38.20;21.90;;;;;;;-4.24;99.97;100624.40;108640;1264;61808;-67
2023/01/12 16:48:32;;;;;;;35.50;22.00;;;;;;;-4.20;99.95;100623.70;108693;1263;62458;-67
2023/01/12 16:50:59;;;;;;;36.00;21.90;;;;;;;-4.15;100.00;100624.11;108741;1263;74907;-68
2023/01/12 16:53:26;;;;;;;44.80;24.60;;;;;;;-4.12;99.69;100613.52;108716;1263;68816;-66
2023/01/12 16:55:53;;;;;;;39.30;25.30;;;;;;;-4.13;99.12;100608.70;108626;1262;72634;-68
2023/01/12 16:58:20;;;;;;;39.30;25.70;;;;;;;-4.12;99.14;100601.11;108642;1263;59647;-71
2023/01/12 17:00:47;;;;;;;31.10;22.50;;;;;;;-4.11;98.82;100592.41;108725;1262;59454;-68
2023/01/12 17:03:14;;;;;;;32.90;20.70;;;;;;;-4.07;98.73;100598.52;108675;1262;71807;-68
2023/01/12 17:05:41;;;;;;;46.70;24.80;;;;;;;-4.05;98.61;100606.77;108656;1262;68353;-68
2023/01/12 17:08:08;;;;;;;32.10;20.60;;;;;;;-4.05;98.27;100608.71;108724;1262;75451;-67
2023/01/12 17:10:35;;;;;;;41.20;24.90;;;;;;;-4.07;97.95;100606.21;108650;1262;57286;-67
2023/01/12 17:13:02;;;;;;;42.60;24.20;;;;;;;-4.05;97.85;100603.25;108662;1268;62248;-67
2023/01/12 17:15:29;;;;;;;29.90;20.80;;;;;;;-4.07;97.68;100597.31;108639;1267;74346;-69
2023/01/12 17:17:56;;;;;;;40.90;21.80;;;;;;;-4.07;97.65;100594.50;108731;1263;66793;-67
2023/01/12 17:20:23;;;;;;;39.60;23.40;;;;;;;-4.07;97.41;100592.58;108739;1263;73737;-67
2023/01/12 17:22:50;;;;;;;51.30;28.80;;;;;;;-4.09;97.43;100591.01;108699;1263;60035;-67
2023/01/12 17:25:17;;;;;;;42.60;25.90;;;;;;;-4.10;97.57;100589.52;108757;1263;60095;-67
2023/01/12 17:27:44;;;;;;;48.40;25.80;;;;;;;-4.09;97.50;100587.50;108747;1263;71874;-65
2023/01/12 17:30:11;;;;;;;49.20;23.80;;;;;;;-4.08;97.37;100584.77;108731;1263;66516;-67
2023/01/12 17:32:38;;;;;;;39.00;21.20;;;;;;;-4.02;97.52;100584.64;108744;1263;70910;-66
2023/01/12 17:35:08;;;;;;;44.10;22.80;;;;;;;-3.93;97.54;100587.12;108732;1264;60344;-67
2023/01/12 17:37:35;;;;;;;40.30;24.50;;;;;;;-3.83;97.26;100589.98;108566;1264;59066;-67
2023/01/12 17:40:02;;;;;;;37.30;26.50;;;;;;;-3.84;96.61;100592.81;108720;1264;71433;-67
2023/01/12 17:45:18;;;;;;;42.80;23.60;;;;;;;-3.86;96.17;100599.68;108741;1263;72201;-69
2023/01/12 17:47:45;;;;;;;39.80;21.70;;;;;;;-3.89;96.02;100599.80;108634;1263;62046;-68
2023/01/12 17:50:12;;;;;;;37.50;23.20;;;;;;;-3.90;96.02;100600.40;109022;1257;60185;-67
2023/01/12 17:52:39;;;;;;;46.40;22.60;;;;;;;-3.92;95.88;100599.48;109053;1257;73021;-67
2023/01/12 17:55:06;;;;;;;45.30;28.70;;;;;;;-3.91;95.99;100594.48;109044;1257;67464;-67
2023/01/12 17:57:35;;;;;;;37.60;24.70;;;;;;;-3.88;95.94;100590.57;109022;1257;72965;-67
2023/01/12 18:00:05;;;;;;;45.20;25.40;;;;;;;-3.86;95.57;100590.59;109017;1257;58381;-66
2023/01/12 18:02:39;;;;;;;44.60;23.50;;;;;;;-3.95;95.23;100586.95;109038;1257;60453;-75
2023/01/12 18:05:06;;;;;;;38.40;19.30;;;;;;;-3.93;95.39;100581.75;108904;1257;73959;-68
2023/01/12 18:07:34;;;;;;;39.70;23.70;;;;;;;-3.94;95.22;100580.29;108968;1257;67336;-69
2023/01/12 18:10:01;;;;;;;57.20;29.50;;;;;;;-3.96;95.16;100575.14;109035;1257;71567;-67
2023/01/12 18:12:29;;;;;;;40.60;29.80;;;;;;;-4.00;95.09;100573.54;108977;1260;58015;-67
2023/01/12 18:14:55;;;;;;;46.90;28.50;;;;;;;-3.98;95.32;100569.88;109006;1259;59113;-67
2023/01/12 18:17:23;;;;;;;41.70;24.10;;;;;;;-3.99;95.21;100571.71;108995;1258;71668;-68
2023/01/12 18:19:50;;;;;;;39.40;22.90;;;;;;;-4.00;95.20;100583.39;108998;1259;66699;-67
2023/01/12 18:22:17;;;;;;;45.20;23.50;;;;;;;-3.98;95.30;100585.06;109013;1259;71536;-69
2023/01/12 18:24:44;;;;;;;52.50;26.30;;;;;;;-3.98;95.02;100592.51;108943;1259;59614;-68
2023/01/12 18:27:11;;;;;;;43.70;26.60;;;;;;;-4.01;94.96;100592.40;109033;1259;58893;-67
2023/01/12 18:29:38;;;;;;;47.50;27.80;;;;;;;-4.02;94.93;100589.81;108986;1258;75804;-67
2023/01/12 18:32:05;;;;;;;29.30;18.30;;;;;;;-4.06;94.77;100593.36;109030;1259;66592;-68
2023/01/12 18:34:32;;;;;;;39.80;23.20;;;;;;;-4.13;94.91;100589.27;108929;1259;73250;-67
2023/01/12 18:36:59;;;;;;;34.70;23.00;;;;;;;-4.16;95.13;100590.36;108972;1259;60010;-70
2023/01/12 18:39:25;;;;;;;46.30;24.00;;;;;;;-4.13;95.27;100589.41;109000;1259;62415;-67
2023/01/12 18:44:38;;;;;;;44.10;29.00;;;;;;;-4.07;94.98;100591.73;108997;1259;68809;-68
2023/01/12 18:49:56;;;;;;;40.60;25.10;;;;;;;-4.06;94.79;100589.70;108977;1259;62227;-67
2023/01/12 18:55:08;;;;;;;41.80;23.30;;;;;;;-4.01;95.07;100592.64;108997;1259;72314;-67
2023/01/12 18:57:35;;;;;;;42.90;24.10;;;;;;;-3.97;94.98;100585.08;108999;1259;69657;-68
2023/01/12 19:00:13;;;;;;;36.80;24.90;;;;;;;-3.96;94.75;100587.39;108978;1259;71186;-67
2023/01/12 19:02:40;;;;;;;61.00;32.70;;;;;;;-3.98;94.35;100585.30;108985;1259;61219;-66
2023/01/12 19:05:31;;;;;;;53.90;28.50;;;;;;;-4.01;94.37;100575.20;108862;1259;59145;-66
2023/01/12 19:10:26;;;;;;;51.60;26.10;;;;;;;-3.99;94.30;100568.02;109012;1259;67940;-67
2023/01/12 19:18:29;;;;;;;54.60;30.80;;;;;;;-3.96;94.24;100569.20;108983;1259;60471;-67
2023/01/12 19:29:26;;;;;;;40.00;25.50;;;;;;;-4.23;94.43;100570.05;108710;1259;63825;-67
2023/01/12 19:31:53;;;;;;;49.30;26.60;;;;;;;-4.24;94.71;100572.89;108998;1259;62494;-67
2023/01/12 19:34:19;;;;;;;48.60;27.90;;;;;;;-4.21;94.91;100575.59;108972;1259;74354;-68
2023/01/12 19:36:46;;;;;;;43.20;25.00;;;;;;;-4.15;94.87;100578.96;109005;1259;66794;-69
2023/01/12 19:39:14;;;;;;;45.50;20.00;;;;;;;-4.14;94.66;100580.98;108986;1258;74107;-68
2023/01/12 19:44:26;;;;;;;53.60;26.90;;;;;;;-4.22;94.68;100579.41;108997;1259;60003;-70
2023/01/12 19:46:53;;;;;;;38.10;24.00;;;;;;;-4.24;94.81;100577.97;108976;1259;71793;-70
2023/01/12 19:49:20;;;;;;;42.40;26.70;;;;;;;-4.24;95.08;100578.30;108935;1259;67983;-69
2023/01/12 19:51:48;;;;;;;54.40;27.60;;;;;;;-4.23;94.83;100578.58;108904;1259;70468;-71
2023/01/12 19:54:15;;;;;;;52.50;29.70;;;;;;;-4.26;94.72;100583.27;108962;1260;60125;-70
2023/01/12 19:56:45;;;;;;;76.00;30.70;;;;;;;-4.25;94.73;100579.14;108963;1259;58908;-74
2023/01/12 19:59:13;;;;;;;53.20;26.90;;;;;;;-4.23;94.86;100572.44;108948;1260;71599;-71
2023/01/12 20:01:39;;;;;;;52.90;24.90;;;;;;;-4.23;94.86;100579.48;109006;1259;67254;-70
2023/01/12 20:04:07;;;;;;;43.10;25.30;;;;;;;-4.21;94.95;100581.54;108987;1259;73266;-71
2023/01/12 20:06:34;;;;;;;56.40;29.80;;;;;;;-4.21;94.94;100584.73;108957;1260;60651;-71
2023/01/12 20:09:01;;;;;;;46.00;28.10;;;;;;;-4.19;94.92;100591.75;108917;1259;62429;-71
2023/01/12 22:35:09;;;;;;;67.60;30.90;;;;;;;-5.01;100.00;100557.36;102616;1295;600642;-70
2023/01/12 22:37:36;;;;;;;65.60;28.90;;;;;;;-5.00;100.00;100558.65;104893;1273;63388;-67
2023/01/12 22:40:06;;;;;;;52.70;25.60;;;;;;;-4.97;100.00;100561.54;104442;1270;62650;-69
2023/01/12 22:45:18;;;;;;;37.00;16.80;;;;;;;-4.88;100.00;100566.52;105589;1262;70610;-69
2023/01/12 22:47:50;;;;;;;44.40;22.40;;;;;;;-4.82;100.00;100567.79;105183;1257;553003;-70
2023/01/12 22:50:17;;;;;;;43.00;21.50;;;;;;;-4.75;100.00;100570.87;105473;1254;61784;-69
2023/01/12 22:52:49;;;;;;;46.10;25.00;;;;;;;-4.71;100.00;100564.38;105462;1258;62215;-69
2023/01/12 22:55:16;;;;;;;43.20;22.70;;;;;;;-4.62;100.00;100560.15;105858;1254;73708;-71
2023/01/12 22:57:43;;;;;;;33.90;20.90;;;;;;;-4.54;100.00;100561.52;105912;1254;68664;-71
2023/01/12 23:00:11;;;;;;;26.20;14.90;;;;;;;-4.49;100.00;100557.21;105907;1259;73713;-73
2023/01/12 23:05:26;;;;;;;29.20;18.60;;;;;;;-4.46;99.94;100561.73;106113;1256;60978;-70
2023/01/12 23:07:53;;;;;;;31.20;18.50;;;;;;;-4.42;99.99;100562.76;105866;1259;73207;-68